Russett, Maryland
Current Conditions -  °F | °C
As of 8:42 PM on Monday 24 Nov 2014 (Local Time) from KFME Reporting Station
Clear Clear  
Wind Chill: 61°   Ceiling: Unl
Heat Index: 61°   Visibility: 10mi
Dew Point: 52°   Wind: 6mph
Humidity: 72%   Direction: 190°S
Pressure: 29.75"   Gusts: NA
Location:  39.0994°N, 76.8068°W
Report Text: KFME 250142Z AUTO 19005KT 10SM CLR 16/11 A2975 RMK AO1
Loading
Personal Weather Stations






























Interactive Weather Map New forecast layout! Learn more

10-Day Weather Forecast

Advertisements
Track Severe Weather on mobile